Time;durP1;ratioP1;P1;durP2;ratioP2;P2;SDS_P1;SDS_P2;PMS_P1;PMS_P2;Temp;Humidity;BMP_temperature;BMP_pressure;BME280_temperature;BME280_humidity;BME280_pressure;Samples;Min_cycle;Max_cycle;Signal;HPM_P1;HPM_P2
2023/08/10 00:01:48;;;;;;;0.00;0.00;;;15.40;78.80;;;;;;4974502;28;20046;-73
2023/08/10 00:04:13;;;;;;;0.00;0.00;;;15.40;78.80;;;;;;4975546;28;20054;-73
2023/08/10 00:06:39;;;;;;;0.00;0.00;;;15.40;78.70;;;;;;4992344;28;20053;-73
2023/08/10 00:09:05;;;;;;;0.00;0.00;;;15.50;79.00;;;;;;4974642;28;20042;-73
2023/08/10 00:11:30;;;;;;;0.00;0.00;;;15.50;79.50;;;;;;4974816;28;20050;-73
2023/08/10 00:13:56;;;;;;;0.00;0.00;;;15.40;79.60;;;;;;4992025;28;20057;-73
2023/08/10 00:16:22;;;;;;;0.00;0.00;;;15.50;79.40;;;;;;4975165;28;20509;-73
2023/08/10 00:18:48;;;;;;;0.00;0.00;;;15.40;79.20;;;;;;4974282;28;20055;-73
2023/08/10 00:21:14;;;;;;;0.00;0.00;;;15.40;79.50;;;;;;4992362;28;20046;-74
2023/08/10 00:23:39;;;;;;;0.00;0.00;;;15.40;79.50;;;;;;4975068;28;20101;-73
2023/08/10 00:26:05;;;;;;;0.00;0.00;;;15.40;79.30;;;;;;4992080;28;20073;-73
2023/08/10 00:28:30;;;;;;;0.00;0.00;;;15.40;79.30;;;;;;4992282;28;20046;-73
2023/08/10 00:30:56;;;;;;;0.00;0.00;;;15.50;79.50;;;;;;4991848;28;20634;-73
2023/08/10 00:33:21;;;;;;;0.00;0.00;;;15.40;79.60;;;;;;4992000;28;20050;-73
2023/08/10 00:35:47;;;;;;;0.00;0.00;;;15.50;79.40;;;;;;4974751;28;20050;-73
2023/08/10 00:38:12;;;;;;;0.00;0.00;;;15.50;79.80;;;;;;4992021;28;20671;-72
2023/08/10 00:40:38;;;;;;;0.00;0.00;;;15.50;79.80;;;;;;4992376;28;20514;-72
2023/08/10 00:43:05;;;;;;;0.00;0.00;;;15.50;79.90;;;;;;4992504;28;20050;-73
2023/08/10 00:45:31;;;;;;;0.00;0.00;;;15.50;79.90;;;;;;4992114;28;20054;-72
2023/08/10 00:47:57;;;;;;;0.00;0.00;;;15.50;79.80;;;;;;4974878;28;20145;-73
2023/08/10 00:50:24;;;;;;;0.00;0.00;;;15.50;79.70;;;;;;4991254;28;20506;-74
2023/08/10 00:52:50;;;;;;;0.00;0.00;;;15.50;79.60;;;;;;4991671;28;20085;-73
2023/08/10 00:55:16;;;;;;;0.00;0.00;;;15.50;79.70;;;;;;4991779;28;20128;-73
2023/08/10 00:57:42;;;;;;;0.00;0.00;;;15.50;79.70;;;;;;4974345;28;20082;-73
2023/08/10 01:00:10;;;;;;;0.05;0.05;;;15.50;79.50;;;;;;4991322;28;20049;-73
2023/08/10 01:02:39;;;;;;;0.00;0.00;;;15.50;79.40;;;;;;4991068;28;20065;-73
2023/08/10 01:05:08;;;;;;;0.00;0.00;;;15.50;79.40;;;;;;4991353;28;20069;-73
2023/08/10 01:07:50;;;;;;;0.00;0.00;;;15.50;79.60;;;;;;4991448;28;20124;-73
2023/08/10 01:10:40;;;;;;;0.00;0.00;;;15.50;79.50;;;;;;4991351;28;20451;-74
2023/08/10 01:13:34;;;;;;;0.00;0.00;;;15.50;79.50;;;;;;4991746;28;20560;-72
2023/08/10 01:16:04;;;;;;;0.00;0.00;;;15.50;79.30;;;;;;4988600;28;20504;-72
2023/08/10 01:18:32;;;;;;;0.00;0.00;;;15.40;79.30;;;;;;4973879;28;20042;-73
2023/08/10 01:20:59;;;;;;;0.00;0.00;;;15.30;79.30;;;;;;4993412;28;20051;-73
2023/08/10 01:23:39;;;;;;;0.00;0.00;;;15.30;79.60;;;;;;4974663;28;20068;-72
2023/08/10 01:26:05;;;;;;;0.00;0.00;;;15.30;80.10;;;;;;4991765;28;20042;-73
2023/08/10 01:28:32;;;;;;;0.00;0.00;;;15.20;80.00;;;;;;4992071;28;20049;-73
2023/08/10 01:30:59;;;;;;;0.00;0.00;;;15.20;79.90;;;;;;4985058;28;20051;-72
2023/08/10 01:33:26;;;;;;;0.00;0.00;;;15.20;79.90;;;;;;4986640;28;20536;-72
2023/08/10 01:35:52;;;;;;;0.00;0.00;;;15.10;79.90;;;;;;4971966;28;20085;-72
2023/08/10 01:38:18;;;;;;;0.00;0.00;;;15.10;80.10;;;;;;4991311;28;20038;-73
2023/08/10 01:40:43;;;;;;;0.00;0.00;;;15.10;80.10;;;;;;4973648;28;20136;-73
2023/08/10 01:43:09;;;;;;;0.00;0.00;;;15.10;80.10;;;;;;4991935;28;20090;-73
2023/08/10 01:45:34;;;;;;;0.00;0.00;;;15.00;80.30;;;;;;4973969;28;20088;-72
2023/08/10 01:48:11;;;;;;;0.00;0.00;;;14.90;80.80;;;;;;4991716;28;20034;-73
2023/08/10 01:50:40;;;;;;;0.00;0.00;;;14.90;80.80;;;;;;4981785;28;20054;-73
2023/08/10 01:53:09;;;;;;;0.00;0.00;;;14.90;80.80;;;;;;4991083;28;20062;-72
2023/08/10 01:55:35;;;;;;;0.00;0.00;;;14.90;80.80;;;;;;4989831;28;20085;-73
2023/08/10 01:58:01;;;;;;;0.00;0.00;;;14.80;81.10;;;;;;4990766;28;20443;-72
2023/08/10 02:00:26;;;;;;;0.00;0.00;;;14.80;81.20;;;;;;4973450;28;20101;-73
2023/08/10 02:02:52;;;;;;;0.00;0.00;;;14.80;81.40;;;;;;4973014;28;20049;-72
2023/08/10 02:05:17;;;;;;;0.00;0.00;;;14.70;81.40;;;;;;4956992;28;20372;-73
2023/08/10 02:07:48;;;;;;;0.00;0.00;;;14.70;81.50;;;;;;4957232;28;20120;-73
2023/08/10 02:10:14;;;;;;;0.00;0.00;;;14.70;81.50;;;;;;4983432;28;20054;-72
2023/08/10 02:12:39;;;;;;;0.00;0.00;;;14.60;81.30;;;;;;4989864;28;20702;-73
2023/08/10 02:15:06;;;;;;;0.08;0.08;;;14.70;81.20;;;;;;4972956;28;20046;-72
2023/08/10 02:17:35;;;;;;;0.00;0.00;;;14.70;81.10;;;;;;4989536;28;20049;-73
2023/08/10 02:20:12;;;;;;;0.00;0.00;;;14.70;81.10;;;;;;4956100;28;20050;-73
2023/08/10 02:22:45;;;;;;;0.00;0.00;;;14.70;81.10;;;;;;4989717;28;20562;-73
2023/08/10 02:25:11;;;;;;;0.00;0.00;;;14.70;81.10;;;;;;4972127;28;20046;-73
2023/08/10 02:27:38;;;;;;;0.00;0.00;;;14.70;81.10;;;;;;4990440;28;20053;-73
2023/08/10 02:30:06;;;;;;;0.00;0.00;;;14.70;81.20;;;;;;4972473;28;20089;-73
2023/08/10 02:32:32;;;;;;;0.00;0.00;;;14.70;81.30;;;;;;4972106;28;20043;-73
2023/08/10 02:34:57;;;;;;;0.00;0.00;;;14.70;81.40;;;;;;4990032;28;20466;-73
2023/08/10 02:37:23;;;;;;;0.00;0.00;;;14.70;81.50;;;;;;4989589;28;20085;-73
2023/08/10 02:39:48;;;;;;;0.00;0.00;;;14.70;81.40;;;;;;4971796;28;20476;-73
2023/08/10 02:42:14;;;;;;;0.00;0.00;;;14.80;81.60;;;;;;4984346;28;20105;-72
2023/08/10 02:44:40;;;;;;;0.00;0.00;;;14.80;81.40;;;;;;4990171;28;20057;-73
2023/08/10 02:47:05;;;;;;;0.00;0.00;;;14.80;81.40;;;;;;4989688;28;20050;-73
2023/08/10 02:49:31;;;;;;;0.00;0.00;;;14.80;81.50;;;;;;4989839;28;20049;-73
2023/08/10 02:51:56;;;;;;;0.00;0.00;;;14.80;81.50;;;;;;4989368;28;20046;-73
2023/08/10 02:54:22;;;;;;;0.00;0.00;;;14.80;81.40;;;;;;4971952;28;20054;-73
2023/08/10 02:56:48;;;;;;;0.00;0.00;;;14.80;81.40;;;;;;4972002;28;20042;-72
2023/08/10 02:59:13;;;;;;;0.00;0.00;;;14.80;81.40;;;;;;4989822;28;20074;-72
2023/08/10 03:01:39;;;;;;;0.00;0.00;;;14.80;81.40;;;;;;4971586;28;20042;-72
2023/08/10 03:04:05;;;;;;;0.00;0.00;;;14.80;81.50;;;;;;4988795;28;20058;-73
2023/08/10 03:06:31;;;;;;;0.00;0.00;;;14.80;81.50;;;;;;4989785;28;20515;-73
2023/08/10 03:08:57;;;;;;;0.00;0.00;;;14.90;81.60;;;;;;4989543;28;20554;-72
2023/08/10 03:11:23;;;;;;;0.00;0.00;;;14.80;81.70;;;;;;4971533;28;20050;-72
2023/08/10 03:13:48;;;;;;;0.00;0.00;;;14.90;81.60;;;;;;4989382;28;20042;-72
2023/08/10 03:16:14;;;;;;;0.00;0.00;;;14.90;81.60;;;;;;4988985;28;20046;-72
2023/08/10 03:18:39;;;;;;;0.00;0.00;;;14.90;81.50;;;;;;4989023;28;20058;-73
2023/08/10 03:21:05;;;;;;;0.00;0.00;;;14.90;81.60;;;;;;4955937;28;20047;-73
2023/08/10 03:23:31;;;;;;;0.00;0.00;;;14.90;81.60;;;;;;4971656;28;20050;-72
2023/08/10 03:25:56;;;;;;;0.00;0.00;;;14.90;81.80;;;;;;4960809;28;20717;-72
2023/08/10 03:28:22;;;;;;;0.00;0.00;;;14.90;81.70;;;;;;4969799;28;20133;-73
2023/08/10 03:30:48;;;;;;;0.00;0.00;;;15.00;81.70;;;;;;4955329;28;20047;-72
2023/08/10 03:33:14;;;;;;;0.00;0.00;;;15.00;81.70;;;;;;4989362;28;20057;-72
2023/08/10 03:35:39;;;;;;;0.00;0.00;;;15.00;81.70;;;;;;4989892;28;20188;-72
2023/08/10 03:38:07;;;;;;;0.00;0.00;;;15.00;81.80;;;;;;4992748;28;20061;-73
2023/08/10 03:40:32;;;;;;;0.00;0.00;;;15.00;81.90;;;;;;4975882;28;20148;-72
2023/08/10 03:42:58;;;;;;;0.00;0.00;;;15.00;81.90;;;;;;4975388;28;20518;-73
2023/08/10 03:45:23;;;;;;;0.00;0.00;;;15.10;81.80;;;;;;4975351;28;20384;-73
2023/08/10 03:47:49;;;;;;;0.00;0.00;;;15.10;81.80;;;;;;4975834;28;20492;-73
2023/08/10 03:50:14;;;;;;;0.00;0.00;;;15.10;81.80;;;;;;4992654;28;20046;-72
2023/08/10 03:52:40;;;;;;;0.00;0.00;;;15.10;81.90;;;;;;4975369;28;20042;-73
2023/08/10 03:55:06;;;;;;;0.00;0.00;;;15.10;81.90;;;;;;4993116;28;20042;-73
2023/08/10 03:57:32;;;;;;;0.00;0.00;;;15.20;81.90;;;;;;4975503;28;20046;-73
2023/08/10 03:59:58;;;;;;;0.00;0.00;;;15.20;81.90;;;;;;4993109;28;20096;-73
2023/08/10 04:02:24;;;;;;;0.00;0.00;;;15.10;81.80;;;;;;4974538;28;20038;-73
2023/08/10 04:04:49;;;;;;;0.00;0.00;;;15.20;81.90;;;;;;4975879;28;20046;-73
2023/08/10 04:07:15;;;;;;;0.00;0.00;;;15.20;82.00;;;;;;4992830;28;20130;-72
2023/08/10 04:09:46;;;;;;;0.00;0.00;;;15.20;81.90;;;;;;4974787;28;20057;-72
2023/08/10 04:12:12;;;;;;;0.00;0.00;;;15.20;81.90;;;;;;4992747;28;20101;-72
2023/08/10 04:14:37;;;;;;;0.00;0.00;;;15.30;81.80;;;;;;4974807;28;20050;-73
2023/08/10 04:17:03;;;;;;;0.00;0.00;;;15.20;81.70;;;;;;4991883;28;20563;-72
2023/08/10 04:19:30;;;;;;;0.00;0.00;;;15.20;81.80;;;;;;4974151;28;20050;-73
2023/08/10 04:21:59;;;;;;;0.00;0.00;;;15.30;81.80;;;;;;4958888;28;20046;-73
2023/08/10 04:24:24;;;;;;;0.00;0.00;;;15.20;81.70;;;;;;4990705;28;20511;-72
2023/08/10 04:26:50;;;;;;;0.00;0.00;;;15.20;81.80;;;;;;4974326;28;20049;-73
2023/08/10 04:29:37;;;;;;;0.00;0.00;;;15.30;81.80;;;;;;4991854;28;20156;-72
2023/08/10 04:32:03;;;;;;;0.00;0.00;;;15.30;81.80;;;;;;4973814;28;20042;-72
2023/08/10 04:34:38;;;;;;;0.00;0.00;;;15.30;81.90;;;;;;4990874;28;20527;-72
2023/08/10 04:37:06;;;;;;;0.00;0.00;;;15.30;81.90;;;;;;4979982;28;20415;-73
2023/08/10 04:39:38;;;;;;;0.00;0.00;;;15.30;81.80;;;;;;4991202;28;20109;-73
2023/08/10 04:42:03;;;;;;;;;;;15.30;81.80;;;;;;4982058;28;20104;-72
2023/08/10 04:44:29;;;;;;;0.00;0.00;;;15.30;81.90;;;;;;4969585;28;20347;-73
2023/08/10 04:46:57;;;;;;;0.00;0.00;;;15.30;81.80;;;;;;4958188;28;20038;-73
2023/08/10 04:49:26;;;;;;;0.00;0.00;;;15.40;81.80;;;;;;4991394;28;20086;-73
2023/08/10 04:51:56;;;;;;;0.00;0.00;;;15.50;82.00;;;;;;4958291;28;20589;-73
2023/08/10 04:54:27;;;;;;;0.00;0.00;;;15.50;82.00;;;;;;4973711;28;20527;-73
2023/08/10 04:57:05;;;;;;;0.00;0.00;;;15.50;82.10;;;;;;4940984;28;20063;-73
2023/08/10 04:59:31;;;;;;;0.00;0.00;;;15.50;82.20;;;;;;4968184;28;20047;-73
2023/08/10 05:02:14;;;;;;;0.00;0.00;;;15.50;82.30;;;;;;4965530;28;20062;-73
2023/08/10 05:04:40;;;;;;;0.00;0.00;;;15.50;82.20;;;;;;4990530;28;20125;-71
2023/08/10 05:07:15;;;;;;;0.00;0.00;;;15.60;82.50;;;;;;4957616;28;20046;-70
2023/08/10 05:09:52;;;;;;;0.00;0.00;;;15.60;82.60;;;;;;4990706;28;20054;-71
2023/08/10 05:12:48;;;;;;;0.00;0.00;;;15.60;82.60;;;;;;4989987;28;20136;-71
2023/08/10 05:15:16;;;;;;;0.00;0.00;;;15.60;82.70;;;;;;4967198;28;20054;-71
2023/08/10 05:17:42;;;;;;;0.00;0.00;;;15.70;82.70;;;;;;4991146;28;20054;-73
2023/08/10 05:20:10;;;;;;;0.00;0.00;;;15.70;82.80;;;;;;4989827;28;20054;-73
2023/08/10 05:22:49;;;;;;;0.00;0.00;;;15.70;82.80;;;;;;4972921;28;20532;-73
2023/08/10 05:25:15;;;;;;;0.00;0.00;;;15.70;82.80;;;;;;4972762;28;20043;-73
2023/08/10 05:27:53;;;;;;;0.00;0.00;;;15.70;82.80;;;;;;4990777;28;20050;-73
2023/08/10 05:30:19;;;;;;;0.00;0.00;;;15.80;82.80;;;;;;4987203;28;20104;-74
2023/08/10 05:32:47;;;;;;;0.00;0.00;;;15.80;82.70;;;;;;4965654;28;20479;-73
2023/08/10 05:35:26;;;;;;;0.00;0.00;;;15.80;82.90;;;;;;4991188;28;20049;-73
2023/08/10 05:37:52;;;;;;;0.00;0.00;;;15.90;82.80;;;;;;4971413;28;20038;-73
2023/08/10 05:40:22;;;;;;;0.00;0.00;;;15.90;83.00;;;;;;4987233;28;20091;-73
2023/08/10 05:43:00;;;;;;;0.00;0.00;;;15.90;83.00;;;;;;4970939;28;20046;-73
2023/08/10 05:45:26;;;;;;;0.00;0.00;;;16.00;83.00;;;;;;4972648;28;20557;-73
2023/08/10 05:48:24;;;;;;;0.00;0.00;;;16.00;82.90;;;;;;4958015;28;20058;-73
2023/08/10 05:51:05;;;;;;;0.00;0.00;;;16.10;83.00;;;;;;4988714;28;20050;-73
2023/08/10 05:53:31;;;;;;;0.00;0.00;;;16.10;83.10;;;;;;4973136;28;20495;-73
2023/08/10 05:56:03;;;;;;;0.00;0.00;;;16.10;83.10;;;;;;4990572;28;20046;-73
2023/08/10 05:58:35;;;;;;;0.00;0.00;;;16.10;83.20;;;;;;4988913;28;20074;-73
2023/08/10 06:01:03;;;;;;;0.00;0.00;;;16.20;83.20;;;;;;4972813;28;20671;-72
2023/08/10 06:03:41;;;;;;;0.00;0.00;;;16.20;83.40;;;;;;4971819;28;20164;-73
2023/08/10 06:06:13;;;;;;;0.00;0.00;;;16.20;83.40;;;;;;4989128;28;20046;-74
2023/08/10 06:08:38;;;;;;;0.00;0.00;;;16.20;83.50;;;;;;4973308;28;20050;-73
2023/08/10 06:11:08;;;;;;;0.00;0.00;;;16.30;83.40;;;;;;4990625;28;20514;-73
2023/08/10 06:13:38;;;;;;;0.00;0.00;;;16.30;83.40;;;;;;4979149;28;20054;-73
2023/08/10 06:16:13;;;;;;;0.00;0.00;;;16.30;83.40;;;;;;4965212;28;20116;-72
2023/08/10 06:18:42;;;;;;;0.00;0.00;;;16.30;83.40;;;;;;4966116;28;20057;-74
2023/08/10 06:21:42;;;;;;;0.00;0.00;;;16.40;83.10;;;;;;4973473;28;20055;-73
2023/08/10 06:24:09;;;;;;;0.00;0.00;;;16.50;82.90;;;;;;4904375;28;20719;-74
2023/08/10 06:27:07;;;;;;;0.00;0.00;;;16.50;82.70;;;;;;4945844;28;20054;-73
2023/08/10 06:29:39;;;;;;;0.00;0.00;;;16.50;82.40;;;;;;4980353;28;20488;-73
2023/08/10 06:32:08;;;;;;;0.00;0.00;;;16.50;82.40;;;;;;4970335;28;20058;-73
2023/08/10 06:34:36;;;;;;;0.00;0.00;;;16.50;82.40;;;;;;4987614;28;20547;-73
2023/08/10 06:37:02;;;;;;;0.00;0.00;;;16.60;82.40;;;;;;4959715;28;20058;-73
2023/08/10 06:39:29;;;;;;;0.00;0.00;;;16.70;82.40;;;;;;4979491;28;20046;-73
2023/08/10 06:42:12;;;;;;;0.00;0.00;;;16.70;82.30;;;;;;4989514;28;20499;-73
2023/08/10 06:44:38;;;;;;;0.00;0.00;;;16.80;82.30;;;;;;4964042;28;20047;-73
2023/08/10 06:47:04;;;;;;;0.10;0.10;;;16.80;82.50;;;;;;4982920;28;20454;-73
2023/08/10 06:49:36;;;;;;;0.00;0.00;;;16.90;82.50;;;;;;4989750;28;20100;-72
2023/08/10 06:52:03;;;;;;;0.00;0.00;;;16.90;82.40;;;;;;4976085;28;20042;-72
2023/08/10 06:54:29;;;;;;;0.00;0.00;;;17.00;82.20;;;;;;4954959;28;20061;-71
2023/08/10 06:56:55;;;;;;;0.00;0.00;;;17.00;81.90;;;;;;4977121;28;20073;-74
2023/08/10 06:59:21;;;;;;;0.00;0.00;;;17.10;81.80;;;;;;4979137;28;20424;-72
2023/08/10 07:01:47;;;;;;;0.00;0.00;;;17.10;81.70;;;;;;4977198;28;20046;-72
2023/08/10 07:04:12;;;;;;;0.00;0.00;;;17.20;81.60;;;;;;4977937;28;20034;-72
2023/08/10 07:06:41;;;;;;;0.00;0.00;;;17.20;81.40;;;;;;4978365;28;20050;-72
2023/08/10 07:09:09;;;;;;;0.00;0.00;;;17.30;80.90;;;;;;4977658;28;20046;-70
2023/08/10 07:11:35;;;;;;;0.22;0.22;;;17.40;80.40;;;;;;4959991;28;20050;-70
2023/08/10 07:14:03;;;;;;;0.00;0.00;;;17.50;80.30;;;;;;4959717;28;20054;-71
2023/08/10 07:16:29;;;;;;;0.00;0.00;;;17.50;79.70;;;;;;4989652;28;20058;-71
2023/08/10 07:19:01;;;;;;;0.10;0.10;;;17.50;79.30;;;;;;4977925;28;20031;-71
2023/08/10 07:21:27;;;;;;;0.00;0.00;;;17.50;79.00;;;;;;4977798;28;20043;-70
2023/08/10 07:23:52;;;;;;;0.00;0.00;;;17.60;78.60;;;;;;4960855;28;20049;-71
2023/08/10 07:26:24;;;;;;;0.00;0.00;;;17.60;78.40;;;;;;4978642;28;20093;-70
2023/08/10 07:28:50;;;;;;;0.00;0.00;;;17.60;78.20;;;;;;4977472;28;20047;-71
2023/08/10 07:31:15;;;;;;;0.00;0.00;;;17.70;78.40;;;;;;4978448;28;20503;-70
2023/08/10 07:33:43;;;;;;;0.00;0.00;;;17.80;78.50;;;;;;4978451;28;20050;-71
2023/08/10 07:36:08;;;;;;;0.00;0.00;;;17.90;78.40;;;;;;4978180;28;20125;-70
2023/08/10 07:38:34;;;;;;;0.00;0.00;;;17.90;78.30;;;;;;4977995;28;20046;-71
2023/08/10 07:41:01;;;;;;;0.00;0.00;;;18.00;78.20;;;;;;4976848;28;20050;-71
2023/08/10 07:43:26;;;;;;;0.00;0.00;;;18.00;77.80;;;;;;4977555;28;20053;-70
2023/08/10 07:45:55;;;;;;;0.00;0.00;;;18.00;77.70;;;;;;4977429;28;20410;-70
2023/08/10 07:48:20;;;;;;;0.10;0.10;;;18.10;77.30;;;;;;4977012;28;20050;-70
2023/08/10 07:50:47;;;;;;;0.00;0.00;;;18.00;77.20;;;;;;4977205;28;20050;-70
2023/08/10 07:53:12;;;;;;;0.00;0.00;;;18.00;76.20;;;;;;4977098;28;20133;-70
2023/08/10 07:55:44;;;;;;;0.00;0.00;;;18.00;76.60;;;;;;4960736;28;20126;-70
2023/08/10 07:58:09;;;;;;;0.00;0.00;;;18.00;76.50;;;;;;4977039;28;20057;-71
2023/08/10 08:00:38;;;;;;;0.00;0.00;;;18.00;76.80;;;;;;4976426;28;20376;-70
2023/08/10 08:03:12;;;;;;;0.00;0.00;;;18.10;76.70;;;;;;4977829;28;20042;-70
2023/08/10 08:05:40;;;;;;;0.00;0.00;;;18.10;77.00;;;;;;4978530;28;20044;-70
2023/08/10 08:08:06;;;;;;;0.00;0.00;;;18.10;76.90;;;;;;4977785;28;20046;-71
2023/08/10 08:10:33;;;;;;;0.00;0.00;;;18.10;76.30;;;;;;4978204;28;20050;-70
2023/08/10 08:12:59;;;;;;;0.00;0.00;;;18.00;75.30;;;;;;4976719;28;20459;-70
2023/08/10 08:15:25;;;;;;;0.10;0.10;;;18.00;75.60;;;;;;4977774;28;20101;-71
2023/08/10 08:18:28;;;;;;;0.00;0.00;;;18.00;76.20;;;;;;4976681;28;20420;-70
2023/08/10 08:20:57;;;;;;;0.00;0.00;;;18.00;76.30;;;;;;4978161;28;20049;-71
2023/08/10 08:23:23;;;;;;;0.00;0.00;;;18.00;76.30;;;;;;4962817;28;20049;-71
2023/08/10 08:25:48;;;;;;;0.00;0.00;;;18.10;76.60;;;;;;4980245;28;20038;-70
2023/08/10 08:28:14;;;;;;;0.00;0.00;;;18.10;76.50;;;;;;4980998;28;20089;-71
2023/08/10 08:30:39;;;;;;;0.00;0.00;;;18.10;76.50;;;;;;4980224;28;20511;-70
2023/08/10 08:33:05;;;;;;;0.00;0.00;;;18.10;76.20;;;;;;4980629;28;20046;-70
2023/08/10 08:35:31;;;;;;;0.00;0.00;;;18.10;76.30;;;;;;4978940;28;20035;-71
2023/08/10 08:37:56;;;;;;;0.00;0.00;;;18.10;76.50;;;;;;4978636;28;20073;-70
2023/08/10 08:40:22;;;;;;;0.00;0.00;;;18.30;76.30;;;;;;4979082;28;20116;-70
2023/08/10 08:42:49;;;;;;;0.00;0.00;;;18.30;76.30;;;;;;4980044;28;20122;-70
2023/08/10 08:45:15;;;;;;;0.00;0.00;;;18.30;76.40;;;;;;4980774;28;20039;-70
2023/08/10 08:47:43;;;;;;;0.00;0.00;;;18.40;76.20;;;;;;4979378;28;20050;-70
2023/08/10 08:50:14;;;;;;;0.00;0.00;;;18.40;75.90;;;;;;4981010;28;20377;-70
2023/08/10 08:52:43;;;;;;;0.00;0.00;;;18.40;76.00;;;;;;4979643;28;20042;-70
2023/08/10 08:55:11;;;;;;;0.00;0.00;;;18.40;76.30;;;;;;4963587;28;20055;-71
2023/08/10 08:57:38;;;;;;;0.00;0.00;;;18.40;76.30;;;;;;4978007;28;20122;-71
2023/08/10 09:00:08;;;;;;;0.00;0.00;;;18.50;76.40;;;;;;4978946;28;20051;-70
2023/08/10 09:02:33;;;;;;;0.00;0.00;;;18.50;76.10;;;;;;4980860;28;20039;-71
2023/08/10 09:05:14;;;;;;;0.00;0.00;;;18.50;76.20;;;;;;4980484;28;20049;-70
2023/08/10 09:07:43;;;;;;;0.00;0.00;;;18.50;76.40;;;;;;4976708;28;20430;-71
2023/08/10 09:10:20;;;;;;;0.00;0.00;;;18.50;76.20;;;;;;4976659;28;20364;-71
2023/08/10 09:12:47;;;;;;;0.00;0.00;;;18.50;76.10;;;;;;4979182;28;20054;-71
2023/08/10 09:15:16;;;;;;;0.00;0.00;;;18.60;75.60;;;;;;4978880;28;20141;-71
2023/08/10 09:17:47;;;;;;;0.00;0.00;;;18.60;75.00;;;;;;4978605;28;20093;-71
2023/08/10 09:20:22;;;;;;;0.00;0.00;;;18.60;75.00;;;;;;4962448;28;20039;-71
2023/08/10 09:22:50;;;;;;;0.00;0.00;;;18.70;75.10;;;;;;4979539;28;20046;-71
2023/08/10 09:25:16;;;;;;;0.00;0.00;;;18.70;74.50;;;;;;4979027;28;20042;-71
2023/08/10 09:27:42;;;;;;;0.00;0.00;;;18.70;74.30;;;;;;4979346;28;20666;-71
2023/08/10 09:30:08;;;;;;;0.00;0.00;;;18.70;74.20;;;;;;4977780;28;20049;-70
2023/08/10 09:32:39;;;;;;;0.00;0.00;;;18.70;73.80;;;;;;4978642;28;20062;-71
2023/08/10 09:35:21;;;;;;;0.00;0.00;;;18.80;74.40;;;;;;4978889;28;20559;-71
2023/08/10 09:37:48;;;;;;;0.00;0.00;;;18.80;73.50;;;;;;4978247;28;20491;-71
2023/08/10 09:40:22;;;;;;;0.00;0.00;;;18.90;74.10;;;;;;4977248;28;20062;-71
2023/08/10 09:42:56;;;;;;;0.00;0.00;;;18.90;73.70;;;;;;4959990;28;20046;-72
2023/08/10 09:45:25;;;;;;;0.00;0.00;;;19.00;73.60;;;;;;4979604;28;20050;-72
2023/08/10 09:47:50;;;;;;;0.00;0.00;;;19.00;73.10;;;;;;4979369;28;20727;-72
2023/08/10 09:50:19;;;;;;;0.00;0.00;;;19.10;72.30;;;;;;4978222;28;20074;-71
2023/08/10 09:52:54;;;;;;;0.00;0.00;;;19.20;72.80;;;;;;4978303;28;20054;-71
2023/08/10 09:55:20;;;;;;;0.00;0.00;;;19.30;73.30;;;;;;4979359;28;20043;-71
2023/08/10 09:57:49;;;;;;;0.00;0.00;;;19.50;73.50;;;;;;4960184;28;20398;-72
2023/08/10 10:00:19;;;;;;;0.00;0.00;;;19.50;72.70;;;;;;4962682;28;20050;-71
2023/08/10 10:02:51;;;;;;;0.00;0.00;;;19.60;73.20;;;;;;4983423;28;20062;-72
2023/08/10 10:05:31;;;;;;;0.00;0.00;;;19.70;72.80;;;;;;4960589;28;20066;-71
2023/08/10 10:08:07;;;;;;;0.00;0.00;;;19.70;72.50;;;;;;4961401;28;20038;-71
2023/08/10 10:10:35;;;;;;;0.00;0.00;;;19.80;72.40;;;;;;4978651;28;20100;-72
2023/08/10 10:13:04;;;;;;;0.00;0.00;;;19.80;72.50;;;;;;4978021;28;20046;-72
2023/08/10 10:15:31;;;;;;;0.00;0.00;;;19.90;72.30;;;;;;4978033;28;20042;-73
2023/08/10 10:17:57;;;;;;;0.00;0.00;;;19.90;72.40;;;;;;4977520;28;20046;-72
2023/08/10 10:20:23;;;;;;;0.00;0.00;;;19.90;72.30;;;;;;4978961;28;20050;-74
2023/08/10 10:22:49;;;;;;;0.00;0.00;;;20.00;72.60;;;;;;4978838;28;20066;-73
2023/08/10 10:25:19;;;;;;;0.00;0.00;;;19.90;71.90;;;;;;4977518;28;20054;-72
2023/08/10 10:27:50;;;;;;;0.00;0.00;;;20.00;72.20;;;;;;4976235;28;20133;-72
2023/08/10 10:30:17;;;;;;;0.00;0.00;;;20.10;72.40;;;;;;4978009;28;20058;-73
2023/08/10 10:32:48;;;;;;;0.00;0.00;;;20.10;72.90;;;;;;4978826;28;20473;-72
2023/08/10 10:35:32;;;;;;;0.00;0.00;;;20.20;73.00;;;;;;4978110;28;20065;-73
2023/08/10 10:37:59;;;;;;;0.00;0.00;;;20.30;72.90;;;;;;4959362;28;20488;-72
2023/08/10 10:40:27;;;;;;;0.00;0.00;;;20.40;73.30;;;;;;4977739;28;20058;-73
2023/08/10 10:43:08;;;;;;;0.00;0.00;;;20.40;73.20;;;;;;4958886;28;20058;-73
2023/08/10 10:45:35;;;;;;;;;;;20.40;73.00;;;;;;4976575;28;20077;-73
2023/08/10 10:48:01;;;;;;;0.00;0.00;;;20.40;72.80;;;;;;4978037;28;20019;-72
2023/08/10 10:50:30;;;;;;;0.00;0.00;;;20.40;72.40;;;;;;4977729;28;21666;-73
2023/08/10 10:53:04;;;;;;;0.00;0.00;;;20.50;72.90;;;;;;4977989;28;20039;-73
2023/08/10 10:55:35;;;;;;;0.00;0.00;;;20.50;73.00;;;;;;4978858;28;20053;-72
2023/08/10 10:58:02;;;;;;;0.00;0.00;;;20.60;73.20;;;;;;4977967;28;20053;-73
2023/08/10 11:00:28;;;;;;;0.00;0.00;;;20.60;73.20;;;;;;4977951;28;20119;-73
2023/08/10 11:02:54;;;;;;;0.00;0.00;;;20.70;72.70;;;;;;4976474;28;20054;-72
2023/08/10 11:05:23;;;;;;;0.00;0.00;;;20.70;73.00;;;;;;4976869;28;20065;-73
2023/08/10 11:07:51;;;;;;;0.00;0.00;;;20.80;73.00;;;;;;4977947;28;20042;-73
2023/08/10 11:10:19;;;;;;;0.00;0.00;;;20.80;73.30;;;;;;4977665;28;20053;-72
2023/08/10 11:12:48;;;;;;;0.00;0.00;;;20.80;72.20;;;;;;4977926;28;20043;-72
2023/08/10 11:15:15;;;;;;;0.00;0.00;;;20.90;72.70;;;;;;4977490;28;20043;-73
2023/08/10 11:17:42;;;;;;;0.00;0.00;;;20.90;72.70;;;;;;4978012;28;20065;-72
2023/08/10 11:20:14;;;;;;;0.00;0.00;;;20.80;72.40;;;;;;4976228;28;20193;-72
2023/08/10 11:22:47;;;;;;;0.00;0.00;;;20.80;72.80;;;;;;4977084;28;20043;-72
2023/08/10 11:25:18;;;;;;;0.00;0.00;;;20.80;73.30;;;;;;4978427;28;20081;-72
2023/08/10 11:27:45;;;;;;;;;;;20.70;73.40;;;;;;4979551;28;20042;-72
2023/08/10 11:30:17;;;;;;;0.00;0.00;;;20.70;73.50;;;;;;4977758;28;19930;-72
2023/08/10 11:32:47;;;;;;;0.00;0.00;;;20.70;73.40;;;;;;4961010;28;20049;-72
2023/08/10 11:35:16;;;;;;;0.00;0.00;;;20.70;73.50;;;;;;4958939;28;20051;-72
2023/08/10 11:37:43;;;;;;;0.00;0.00;;;20.80;73.80;;;;;;4976244;28;20049;-72
2023/08/10 11:40:12;;;;;;;0.00;0.00;;;20.90;73.60;;;;;;4975889;28;20059;-71
2023/08/10 11:42:42;;;;;;;3.65;1.25;;;20.90;73.10;;;;;;4957683;28;20043;-72
2023/08/10 11:45:11;;;;;;;0.00;0.00;;;21.00;73.30;;;;;;4975742;28;20495;-73
2023/08/10 11:48:10;;;;;;;0.00;0.00;;;21.00;73.00;;;;;;4960313;28;20058;-71
2023/08/10 11:50:40;;;;;;;0.00;0.00;;;21.00;72.80;;;;;;4907564;29;20143;-71
2023/08/10 11:53:11;;;;;;;0.00;0.00;;;20.90;72.70;;;;;;4924241;29;20087;-71
2023/08/10 11:55:47;;;;;;;0.60;0.60;;;20.80;72.30;;;;;;4969129;28;20492;-72
2023/08/10 11:58:17;;;;;;;2.13;0.43;;;20.80;72.90;;;;;;4963736;28;20129;-72
2023/08/10 12:01:00;;;;;;;0.08;0.08;;;20.70;73.00;;;;;;4969121;28;20042;-72
2023/08/10 12:03:29;;;;;;;0.00;0.00;;;20.80;73.50;;;;;;4979076;28;20122;-71
2023/08/10 12:05:56;;;;;;;0.00;0.00;;;20.80;73.00;;;;;;4979236;28;20384;-72
2023/08/10 12:08:38;;;;;;;0.00;0.00;;;20.80;73.20;;;;;;4981089;28;20043;-72
2023/08/10 12:11:06;;;;;;;0.00;0.00;;;20.80;73.20;;;;;;4980351;28;20058;-72
2023/08/10 12:13:43;;;;;;;0.00;0.00;;;20.80;73.50;;;;;;4979647;28;20053;-72
2023/08/10 12:16:08;;;;;;;0.00;0.00;;;20.80;72.80;;;;;;4979296;28;20055;-72
2023/08/10 12:18:34;;;;;;;0.00;0.00;;;20.70;73.00;;;;;;4980534;28;20571;-71
2023/08/10 12:20:59;;;;;;;0.00;0.00;;;20.70;73.20;;;;;;4980117;28;20742;-72
2023/08/10 12:23:25;;;;;;;0.00;0.00;;;20.60;73.40;;;;;;4979741;28;20042;-72
2023/08/10 12:25:51;;;;;;;0.00;0.00;;;20.50;73.80;;;;;;4978735;28;20035;-72
2023/08/10 12:28:19;;;;;;;0.00;0.00;;;20.50;74.20;;;;;;4979918;28;20050;-72
2023/08/10 12:30:44;;;;;;;0.00;0.00;;;20.50;74.10;;;;;;4980375;28;20050;-72
2023/08/10 12:33:11;;;;;;;0.00;0.00;;;20.50;74.10;;;;;;4979300;28;20047;-72
2023/08/10 12:35:37;;;;;;;0.28;0.28;;;20.50;74.30;;;;;;4944505;28;20728;-72
2023/08/10 12:38:04;;;;;;;0.00;0.00;;;20.60;74.20;;;;;;4980113;28;20050;-72
2023/08/10 12:40:31;;;;;;;0.17;0.17;;;20.60;74.40;;;;;;4978752;28;20094;-72
2023/08/10 12:42:58;;;;;;;0.00;0.00;;;20.50;74.50;;;;;;4987595;28;20471;-73
2023/08/10 12:45:24;;;;;;;0.00;0.00;;;20.60;74.60;;;;;;4972790;28;20054;-71
2023/08/10 12:47:50;;;;;;;0.00;0.00;;;20.50;74.60;;;;;;4973491;28;20053;-71
2023/08/10 12:50:17;;;;;;;0.00;0.00;;;20.50;74.60;;;;;;4973598;28;20046;-71
2023/08/10 12:52:46;;;;;;;0.00;0.00;;;20.50;74.60;;;;;;4991091;28;20053;-71
2023/08/10 12:55:12;;;;;;;0.00;0.00;;;20.50;74.50;;;;;;4990874;28;20045;-71
2023/08/10 12:57:39;;;;;;;0.00;0.00;;;20.50;74.80;;;;;;4990017;28;20038;-71